KFPR/FPR METAR and TAF weather

Enter ICAO airport designator
Station Type Date Time Source
KFPR METAR 2020/07/07 08:53 UTC NOAA

KFPR 070853Z AUTO 00000KT 9SM CLR 24/24 A3005 RMK AO2 SLP175 T02390239 55008 $


Station Type Date Time Source
KFPR Decoded METAR 2020/07/07 08:53 UTC NOAA

FORT PIERCE ST LUCIE, FL, United States (KFPR) 27-30N 080-23W 13M
Jul 07, 2020 - 04:53 AM EDT / 2020.07.07 0853 UTC
Wind: Calm:0
Visibility: 9 mile(s):0
Sky conditions: clear
Temperature: 75.0 F (23.9 C)
Dew Point: 75.0 F (23.9 C)
Relative Humidity: 100%
Pressure (altimeter): 30.05 in. Hg (1017 hPa)
Pressure tendency: 0.02 inches (0.8 hPa) lower than three hours ago
ob: KFPR 070853Z AUTO 00000KT 9SM CLR 24/24 A3005 RMK AO2 SLP175 T02390239 55008
cycle: 9

Station Type Date Time Source
KFPR TAF 2020/07/07 06:42 UTC NOAA

TAF KFPR 070539Z 0706/0806 21005KT P6SM SCT250
FM071600 12008KT P6SM SCT035 SCT060 BKN250
FM071900 15009KT P6SM VCTS SCT035CB BKN060
TEMPO 0719/0722 VRB15G25KT 2SM TSRA BKN025CB BKN050
FM072200 16007KT P6SM VCSH SCT035 SCT120 BKN250
FM080200 VRB04KT P6SM FEW120 SCT250

Example: see airport list